Misquamicut, Rhode Island
Current Conditions -  °F | °C
As of 1:53 PM on Saturday 25 Oct 2014 (Local Time) from KWST Reporting Station
Clear Clear  
Wind Chill: 63°   Ceiling: Unl
Heat Index: 63°   Visibility: 10mi
Dew Point: 48°   Wind: 12mph
Humidity: 58%   Direction: 240°WSW
Pressure: 29.7"   Gusts: 20mph
Location:  41.3616°N, 71.7933°W
Report Text: KWST 251753Z AUTO 24010G17KT 10SM CLR 17/09 A2970 RMK AO2 SLP057 T01720089 10172 20078 58025
Loading
Personal Weather Stations






























Interactive Weather Map
Tropical Storm Tracking
New forecast layout! Learn more

10-Day Weather Forecast

Advertisements
Track Severe Weather on mobile